sensor_id;sensor_type;location;lat;lon;timestamp;temperature;humidity
38325;DHT22;24126;52.672;13.622;2022-07-23T00:01:45;22.80;57.90
38325;DHT22;24126;52.672;13.622;2022-07-23T00:04:13;22.80;57.90
38325;DHT22;24126;52.672;13.622;2022-07-23T00:06:40;22.70;58.00
38325;DHT22;24126;52.672;13.622;2022-07-23T00:09:07;22.60;58.10
38325;DHT22;24126;52.672;13.622;2022-07-23T00:11:35;22.60;58.10
38325;DHT22;24126;52.672;13.622;2022-07-23T00:14:02;22.60;58.30
38325;DHT22;24126;52.672;13.622;2022-07-23T00:16:29;22.60;58.50
38325;DHT22;24126;52.672;13.622;2022-07-23T00:18:56;22.50;58.80
38325;DHT22;24126;52.672;13.622;2022-07-23T00:21:27;22.50;58.80
38325;DHT22;24126;52.672;13.622;2022-07-23T00:23:54;22.50;58.90
38325;DHT22;24126;52.672;13.622;2022-07-23T00:26:21;22.50;59.10
38325;DHT22;24126;52.672;13.622;2022-07-23T00:28:48;22.50;59.00
38325;DHT22;24126;52.672;13.622;2022-07-23T00:31:15;22.40;59.10
38325;DHT22;24126;52.672;13.622;2022-07-23T00:33:44;22.40;59.00
38325;DHT22;24126;52.672;13.622;2022-07-23T00:36:11;22.40;59.10
38325;DHT22;24126;52.672;13.622;2022-07-23T00:38:38;22.40;59.10
38325;DHT22;24126;52.672;13.622;2022-07-23T00:41:06;22.40;59.10
38325;DHT22;24126;52.672;13.622;2022-07-23T00:43:33;22.40;59.30
38325;DHT22;24126;52.672;13.622;2022-07-23T00:46:00;22.30;59.30
38325;DHT22;24126;52.672;13.622;2022-07-23T00:48:28;22.30;59.50
38325;DHT22;24126;52.672;13.622;2022-07-23T00:50:56;22.20;59.60
38325;DHT22;24126;52.672;13.622;2022-07-23T00:53:23;22.20;59.80
38325;DHT22;24126;52.672;13.622;2022-07-23T00:55:52;22.20;59.90
38325;DHT22;24126;52.672;13.622;2022-07-23T00:58:20;22.30;59.90
38325;DHT22;24126;52.672;13.622;2022-07-23T01:00:47;22.30;59.90
38325;DHT22;24126;52.672;13.622;2022-07-23T01:03:14;22.30;59.90
38325;DHT22;24126;52.672;13.622;2022-07-23T01:05:42;22.40;59.90
38325;DHT22;24126;52.672;13.622;2022-07-23T01:08:09;22.30;59.80
38325;DHT22;24126;52.672;13.622;2022-07-23T01:10:36;22.30;59.90
38325;DHT22;24126;52.672;13.622;2022-07-23T01:13:08;22.40;59.80
38325;DHT22;24126;52.672;13.622;2022-07-23T01:15:36;22.40;59.70
38325;DHT22;24126;52.672;13.622;2022-07-23T01:18:04;22.40;59.70
38325;DHT22;24126;52.672;13.622;2022-07-23T01:20:33;22.40;59.50
38325;DHT22;24126;52.672;13.622;2022-07-23T01:23:01;22.40;59.60
38325;DHT22;24126;52.672;13.622;2022-07-23T01:25:29;22.40;59.60
38325;DHT22;24126;52.672;13.622;2022-07-23T01:27:59;22.40;59.80
38325;DHT22;24126;52.672;13.622;2022-07-23T01:30:27;22.30;59.90
38325;DHT22;24126;52.672;13.622;2022-07-23T01:32:55;22.30;59.80
38325;DHT22;24126;52.672;13.622;2022-07-23T01:35:23;22.30;59.90
38325;DHT22;24126;52.672;13.622;2022-07-23T01:37:53;22.30;59.90
38325;DHT22;24126;52.672;13.622;2022-07-23T01:40:21;22.30;59.80
38325;DHT22;24126;52.672;13.622;2022-07-23T01:42:49;22.20;59.80
38325;DHT22;24126;52.672;13.622;2022-07-23T01:45:17;22.20;59.90
38325;DHT22;24126;52.672;13.622;2022-07-23T01:47:48;22.20;59.90
38325;DHT22;24126;52.672;13.622;2022-07-23T01:50:16;22.20;59.90
38325;DHT22;24126;52.672;13.622;2022-07-23T01:53:09;22.20;59.90
38325;DHT22;24126;52.672;13.622;2022-07-23T01:55:37;22.20;59.90
38325;DHT22;24126;52.672;13.622;2022-07-23T01:58:04;22.10;59.90
38325;DHT22;24126;52.672;13.622;2022-07-23T02:00:32;22.10;59.80
38325;DHT22;24126;52.672;13.622;2022-07-23T02:03:00;22.10;59.90
38325;DHT22;24126;52.672;13.622;2022-07-23T02:05:28;22.00;59.80
38325;DHT22;24126;52.672;13.622;2022-07-23T02:07:56;22.00;60.70
38325;DHT22;24126;52.672;13.622;2022-07-23T02:10:23;22.00;60.00
38325;DHT22;24126;52.672;13.622;2022-07-23T02:12:51;21.90;60.00
38325;DHT22;24126;52.672;13.622;2022-07-23T02:15:18;21.90;60.10
38325;DHT22;24126;52.672;13.622;2022-07-23T02:17:46;21.90;60.30
38325;DHT22;24126;52.672;13.622;2022-07-23T02:20:13;21.90;60.30
38325;DHT22;24126;52.672;13.622;2022-07-23T02:22:43;21.90;60.30
38325;DHT22;24126;52.672;13.622;2022-07-23T02:25:10;21.90;60.30
38325;DHT22;24126;52.672;13.622;2022-07-23T02:27:37;21.80;60.30
38325;DHT22;24126;52.672;13.622;2022-07-23T02:30:06;21.80;60.30
38325;DHT22;24126;52.672;13.622;2022-07-23T02:32:34;21.80;60.50
38325;DHT22;24126;52.672;13.622;2022-07-23T02:35:02;21.80;60.60
38325;DHT22;24126;52.672;13.622;2022-07-23T02:37:30;21.90;60.80
38325;DHT22;24126;52.672;13.622;2022-07-23T02:39:58;21.90;61.00
38325;DHT22;24126;52.672;13.622;2022-07-23T02:42:25;21.90;60.90
38325;DHT22;24126;52.672;13.622;2022-07-23T02:44:52;21.90;60.90
38325;DHT22;24126;52.672;13.622;2022-07-23T02:47:19;21.90;60.80
38325;DHT22;24126;52.672;13.622;2022-07-23T02:49:47;22.00;60.80
38325;DHT22;24126;52.672;13.622;2022-07-23T02:52:14;22.00;60.70
38325;DHT22;24126;52.672;13.622;2022-07-23T02:54:42;22.00;60.60
38325;DHT22;24126;52.672;13.622;2022-07-23T02:57:12;22.00;60.60
38325;DHT22;24126;52.672;13.622;2022-07-23T02:59:41;22.00;60.60
38325;DHT22;24126;52.672;13.622;2022-07-23T03:02:09;22.00;60.50
38325;DHT22;24126;52.672;13.622;2022-07-23T03:04:37;22.10;60.60
38325;DHT22;24126;52.672;13.622;2022-07-23T03:07:05;22.00;60.60
38325;DHT22;24126;52.672;13.622;2022-07-23T03:09:32;22.00;60.60
38325;DHT22;24126;52.672;13.622;2022-07-23T03:11:59;22.00;60.50
38325;DHT22;24126;52.672;13.622;2022-07-23T03:14:26;22.00;60.50
38325;DHT22;24126;52.672;13.622;2022-07-23T03:16:53;22.00;60.50
38325;DHT22;24126;52.672;13.622;2022-07-23T03:19:22;22.00;60.50
38325;DHT22;24126;52.672;13.622;2022-07-23T03:21:49;22.10;60.40
38325;DHT22;24126;52.672;13.622;2022-07-23T03:24:16;22.00;60.50
38325;DHT22;24126;52.672;13.622;2022-07-23T03:26:44;22.00;60.50
38325;DHT22;24126;52.672;13.622;2022-07-23T03:29:12;22.00;60.30
38325;DHT22;24126;52.672;13.622;2022-07-23T03:31:39;22.00;60.30
38325;DHT22;24126;52.672;13.622;2022-07-23T03:34:07;22.00;60.30
38325;DHT22;24126;52.672;13.622;2022-07-23T03:36:34;22.00;60.30
38325;DHT22;24126;52.672;13.622;2022-07-23T03:39:02;22.00;60.30
38325;DHT22;24126;52.672;13.622;2022-07-23T03:41:29;22.00;60.20
38325;DHT22;24126;52.672;13.622;2022-07-23T03:43:57;22.00;60.20
38325;DHT22;24126;52.672;13.622;2022-07-23T03:46:26;22.00;60.20
38325;DHT22;24126;52.672;13.622;2022-07-23T03:48:54;22.10;60.20
38325;DHT22;24126;52.672;13.622;2022-07-23T03:51:21;22.00;59.90
38325;DHT22;24126;52.672;13.622;2022-07-23T03:53:48;22.00;60.00
38325;DHT22;24126;52.672;13.622;2022-07-23T03:56:16;22.10;60.00
38325;DHT22;24126;52.672;13.622;2022-07-23T03:58:43;22.00;59.90
38325;DHT22;24126;52.672;13.622;2022-07-23T04:01:11;22.00;59.90
38325;DHT22;24126;52.672;13.622;2022-07-23T04:03:38;22.00;59.90
38325;DHT22;24126;52.672;13.622;2022-07-23T04:06:06;22.00;59.80
38325;DHT22;24126;52.672;13.622;2022-07-23T04:08:34;22.00;59.80
38325;DHT22;24126;52.672;13.622;2022-07-23T04:11:03;22.00;59.70
38325;DHT22;24126;52.672;13.622;2022-07-23T04:13:30;22.00;59.70
38325;DHT22;24126;52.672;13.622;2022-07-23T04:15:58;22.00;59.60
38325;DHT22;24126;52.672;13.622;2022-07-23T04:18:25;22.10;59.20
38325;DHT22;24126;52.672;13.622;2022-07-23T04:21:00;22.10;59.20
38325;DHT22;24126;52.672;13.622;2022-07-23T04:23:27;22.10;59.20
38325;DHT22;24126;52.672;13.622;2022-07-23T04:25:54;22.10;59.20
38325;DHT22;24126;52.672;13.622;2022-07-23T04:28:22;22.10;59.20
38325;DHT22;24126;52.672;13.622;2022-07-23T04:30:49;22.10;59.20
38325;DHT22;24126;52.672;13.622;2022-07-23T04:33:17;22.10;59.00
38325;DHT22;24126;52.672;13.622;2022-07-23T04:35:47;22.10;58.90
38325;DHT22;24126;52.672;13.622;2022-07-23T04:38:19;22.10;58.80
38325;DHT22;24126;52.672;13.622;2022-07-23T04:40:49;22.10;58.60
38325;DHT22;24126;52.672;13.622;2022-07-23T04:43:16;22.10;58.20
38325;DHT22;24126;52.672;13.622;2022-07-23T04:45:46;22.10;58.00
38325;DHT22;24126;52.672;13.622;2022-07-23T04:48:14;22.10;58.00
38325;DHT22;24126;52.672;13.622;2022-07-23T04:50:41;22.10;58.20
38325;DHT22;24126;52.672;13.622;2022-07-23T04:53:17;22.10;58.40
38325;DHT22;24126;52.672;13.622;2022-07-23T04:55:47;22.10;58.60
38325;DHT22;24126;52.672;13.622;2022-07-23T04:58:14;22.10;58.80
38325;DHT22;24126;52.672;13.622;2022-07-23T05:00:41;22.10;58.80
38325;DHT22;24126;52.672;13.622;2022-07-23T05:03:09;22.10;58.70
38325;DHT22;24126;52.672;13.622;2022-07-23T05:05:36;22.10;59.50
38325;DHT22;24126;52.672;13.622;2022-07-23T05:08:12;22.00;60.10
38325;DHT22;24126;52.672;13.622;2022-07-23T05:10:41;22.00;60.30
38325;DHT22;24126;52.672;13.622;2022-07-23T05:13:08;21.90;60.10
38325;DHT22;24126;52.672;13.622;2022-07-23T05:15:35;21.90;60.90
38325;DHT22;24126;52.672;13.622;2022-07-23T05:18:03;21.80;60.60
38325;DHT22;24126;52.672;13.622;2022-07-23T05:20:31;21.70;60.90
38325;DHT22;24126;52.672;13.622;2022-07-23T05:22:58;21.70;61.30
38325;DHT22;24126;52.672;13.622;2022-07-23T05:25:26;21.70;61.50
38325;DHT22;24126;52.672;13.622;2022-07-23T05:27:53;21.60;61.50
38325;DHT22;24126;52.672;13.622;2022-07-23T05:30:20;21.60;62.00
38325;DHT22;24126;52.672;13.622;2022-07-23T05:32:50;21.50;62.50
38325;DHT22;24126;52.672;13.622;2022-07-23T05:35:18;21.50;62.40
38325;DHT22;24126;52.672;13.622;2022-07-23T05:38:20;21.40;62.30
38325;DHT22;24126;52.672;13.622;2022-07-23T05:40:48;21.40;62.70
38325;DHT22;24126;52.672;13.622;2022-07-23T05:43:17;21.30;62.80
38325;DHT22;24126;52.672;13.622;2022-07-23T05:45:44;21.40;63.10
38325;DHT22;24126;52.672;13.622;2022-07-23T05:48:12;21.40;63.10
38325;DHT22;24126;52.672;13.622;2022-07-23T05:50:52;21.40;63.00
38325;DHT22;24126;52.672;13.622;2022-07-23T05:53:28;21.50;63.00
38325;DHT22;24126;52.672;13.622;2022-07-23T05:56:03;21.40;62.80
38325;DHT22;24126;52.672;13.622;2022-07-23T05:58:31;21.40;62.90
38325;DHT22;24126;52.672;13.622;2022-07-23T06:00:58;21.50;63.00
38325;DHT22;24126;52.672;13.622;2022-07-23T06:03:28;21.50;62.90
38325;DHT22;24126;52.672;13.622;2022-07-23T06:05:56;21.50;62.50
38325;DHT22;24126;52.672;13.622;2022-07-23T06:08:24;21.40;63.00
38325;DHT22;24126;52.672;13.622;2022-07-23T06:10:52;21.40;63.20
38325;DHT22;24126;52.672;13.622;2022-07-23T06:13:19;21.40;63.50
38325;DHT22;24126;52.672;13.622;2022-07-23T06:15:47;21.30;63.60
38325;DHT22;24126;52.672;13.622;2022-07-23T06:18:14;21.40;64.00
38325;DHT22;24126;52.672;13.622;2022-07-23T06:20:41;21.40;63.70
38325;DHT22;24126;52.672;13.622;2022-07-23T06:23:10;21.40;63.80
38325;DHT22;24126;52.672;13.622;2022-07-23T06:25:38;21.40;63.40
38325;DHT22;24126;52.672;13.622;2022-07-23T06:28:05;21.50;63.60
38325;DHT22;24126;52.672;13.622;2022-07-23T06:30:32;21.50;63.20
38325;DHT22;24126;52.672;13.622;2022-07-23T06:33:00;21.50;63.10
38325;DHT22;24126;52.672;13.622;2022-07-23T06:35:28;21.60;63.50
38325;DHT22;24126;52.672;13.622;2022-07-23T06:37:56;21.60;64.00
38325;DHT22;24126;52.672;13.622;2022-07-23T06:40:23;21.60;63.80
38325;DHT22;24126;52.672;13.622;2022-07-23T06:42:51;21.60;64.10
38325;DHT22;24126;52.672;13.622;2022-07-23T06:45:22;21.60;64.10
38325;DHT22;24126;52.672;13.622;2022-07-23T06:47:49;21.60;64.30
38325;DHT22;24126;52.672;13.622;2022-07-23T06:50:18;21.60;64.40
38325;DHT22;24126;52.672;13.622;2022-07-23T06:52:45;21.60;64.10
38325;DHT22;24126;52.672;13.622;2022-07-23T06:55:12;21.50;63.90
38325;DHT22;24126;52.672;13.622;2022-07-23T06:57:40;21.50;64.40
38325;DHT22;24126;52.672;13.622;2022-07-23T07:00:07;21.40;64.60
38325;DHT22;24126;52.672;13.622;2022-07-23T07:02:34;21.40;64.70
38325;DHT22;24126;52.672;13.622;2022-07-23T07:05:02;21.40;64.80
38325;DHT22;24126;52.672;13.622;2022-07-23T07:07:29;21.50;65.00
38325;DHT22;24126;52.672;13.622;2022-07-23T07:09:56;21.50;65.30
38325;DHT22;24126;52.672;13.622;2022-07-23T07:12:24;21.60;65.40
38325;DHT22;24126;52.672;13.622;2022-07-23T07:14:51;21.60;65.30
38325;DHT22;24126;52.672;13.622;2022-07-23T07:17:19;21.70;65.30
38325;DHT22;24126;52.672;13.622;2022-07-23T07:19:46;21.70;65.10
38325;DHT22;24126;52.672;13.622;2022-07-23T07:22:13;21.70;65.10
38325;DHT22;24126;52.672;13.622;2022-07-23T07:24:41;21.70;65.10
38325;DHT22;24126;52.672;13.622;2022-07-23T07:27:08;21.70;64.80
38325;DHT22;24126;52.672;13.622;2022-07-23T07:29:35;21.70;64.80
38325;DHT22;24126;52.672;13.622;2022-07-23T07:32:02;21.70;64.70
38325;DHT22;24126;52.672;13.622;2022-07-23T07:34:30;21.70;64.80
38325;DHT22;24126;52.672;13.622;2022-07-23T07:36:57;21.70;64.60
38325;DHT22;24126;52.672;13.622;2022-07-23T07:39:24;21.70;64.80
38325;DHT22;24126;52.672;13.622;2022-07-23T07:41:51;21.70;65.10
38325;DHT22;24126;52.672;13.622;2022-07-23T07:44:19;21.80;65.30
38325;DHT22;24126;52.672;13.622;2022-07-23T07:46:46;21.90;65.80
38325;DHT22;24126;52.672;13.622;2022-07-23T07:49:14;21.90;65.60
38325;DHT22;24126;52.672;13.622;2022-07-23T07:51:43;22.00;64.80
38325;DHT22;24126;52.672;13.622;2022-07-23T07:54:10;22.10;64.10
38325;DHT22;24126;52.672;13.622;2022-07-23T07:56:37;22.10;63.90
38325;DHT22;24126;52.672;13.622;2022-07-23T07:59:05;22.10;64.10
38325;DHT22;24126;52.672;13.622;2022-07-23T08:01:32;22.20;64.30
38325;DHT22;24126;52.672;13.622;2022-07-23T08:03:59;22.30;64.40
38325;DHT22;24126;52.672;13.622;2022-07-23T08:06:27;22.40;64.50
38325;DHT22;24126;52.672;13.622;2022-07-23T08:08:54;22.40;63.90
38325;DHT22;24126;52.672;13.622;2022-07-23T08:11:21;22.50;63.60
38325;DHT22;24126;52.672;13.622;2022-07-23T08:13:48;22.60;63.30
38325;DHT22;24126;52.672;13.622;2022-07-23T08:16:15;22.60;62.50
38325;DHT22;24126;52.672;13.622;2022-07-23T08:18:42;22.70;62.30
38325;DHT22;24126;52.672;13.622;2022-07-23T08:21:10;22.70;62.70
38325;DHT22;24126;52.672;13.622;2022-07-23T08:23:37;22.80;63.00
38325;DHT22;24126;52.672;13.622;2022-07-23T08:26:04;23.10;62.80
38325;DHT22;24126;52.672;13.622;2022-07-23T08:28:31;23.30;61.80
38325;DHT22;24126;52.672;13.622;2022-07-23T08:30:59;23.60;61.20
38325;DHT22;24126;52.672;13.622;2022-07-23T08:33:26;23.90;60.60
38325;DHT22;24126;52.672;13.622;2022-07-23T08:35:54;24.20;58.80
38325;DHT22;24126;52.672;13.622;2022-07-23T08:38:22;24.40;58.60
38325;DHT22;24126;52.672;13.622;2022-07-23T08:40:51;24.60;58.90
38325;DHT22;24126;52.672;13.622;2022-07-23T08:43:20;24.90;58.80
38325;DHT22;24126;52.672;13.622;2022-07-23T08:45:48;25.20;57.90
38325;DHT22;24126;52.672;13.622;2022-07-23T08:48:17;25.40;57.10
38325;DHT22;24126;52.672;13.622;2022-07-23T08:50:46;25.70;56.40
38325;DHT22;24126;52.672;13.622;2022-07-23T08:53:14;25.80;55.80
38325;DHT22;24126;52.672;13.622;2022-07-23T08:55:45;26.00;55.90
38325;DHT22;24126;52.672;13.622;2022-07-23T08:58:13;26.10;55.50
38325;DHT22;24126;52.672;13.622;2022-07-23T09:00:40;26.40;55.00
38325;DHT22;24126;52.672;13.622;2022-07-23T09:03:07;26.80;54.70
38325;DHT22;24126;52.672;13.622;2022-07-23T09:05:39;27.10;53.70
38325;DHT22;24126;52.672;13.622;2022-07-23T09:10:43;27.20;52.50
38325;DHT22;24126;52.672;13.622;2022-07-23T09:15:51;27.30;52.30
38325;DHT22;24126;52.672;13.622;2022-07-23T09:18:19;27.40;52.30
38325;DHT22;24126;52.672;13.622;2022-07-23T09:20:46;27.50;51.70
38325;DHT22;24126;52.672;13.622;2022-07-23T09:23:13;27.60;50.60
38325;DHT22;24126;52.672;13.622;2022-07-23T09:25:40;27.70;51.30
38325;DHT22;24126;52.672;13.622;2022-07-23T09:28:08;27.70;50.20
38325;DHT22;24126;52.672;13.622;2022-07-23T09:30:35;27.70;50.00
38325;DHT22;24126;52.672;13.622;2022-07-23T09:33:14;27.70;49.50
38325;DHT22;24126;52.672;13.622;2022-07-23T09:38:12;27.70;51.20
38325;DHT22;24126;52.672;13.622;2022-07-23T09:40:39;27.90;51.70
38325;DHT22;24126;52.672;13.622;2022-07-23T09:43:07;28.10;51.40
38325;DHT22;24126;52.672;13.622;2022-07-23T09:45:34;28.10;50.00
38325;DHT22;24126;52.672;13.622;2022-07-23T09:50:39;28.20;49.80
38325;DHT22;24126;52.672;13.622;2022-07-23T09:53:06;28.20;50.00
38325;DHT22;24126;52.672;13.622;2022-07-23T09:55:34;28.20;50.20
38325;DHT22;24126;52.672;13.622;2022-07-23T09:58:03;28.10;49.50
38325;DHT22;24126;52.672;13.622;2022-07-23T10:00:31;28.20;49.80
38325;DHT22;24126;52.672;13.622;2022-07-23T10:02:58;28.20;49.00
38325;DHT22;24126;52.672;13.622;2022-07-23T10:05:29;28.20;49.10
38325;DHT22;24126;52.672;13.622;2022-07-23T10:08:17;28.10;48.40
38325;DHT22;24126;52.672;13.622;2022-07-23T10:11:03;28.00;48.30
38325;DHT22;24126;52.672;13.622;2022-07-23T10:13:30;28.10;48.70
38325;DHT22;24126;52.672;13.622;2022-07-23T10:16:20;28.10;48.40
38325;DHT22;24126;52.672;13.622;2022-07-23T10:18:47;28.20;49.00
38325;DHT22;24126;52.672;13.622;2022-07-23T10:21:17;28.40;48.40
38325;DHT22;24126;52.672;13.622;2022-07-23T10:23:45;28.50;48.60
38325;DHT22;24126;52.672;13.622;2022-07-23T10:26:17;28.50;48.30
38325;DHT22;24126;52.672;13.622;2022-07-23T10:28:51;28.60;48.20
38325;DHT22;24126;52.672;13.622;2022-07-23T10:31:41;28.70;48.20
38325;DHT22;24126;52.672;13.622;2022-07-23T10:37:07;28.50;47.70
38325;DHT22;24126;52.672;13.622;2022-07-23T10:39:38;28.30;47.90
38325;DHT22;24126;52.672;13.622;2022-07-23T10:42:24;28.30;48.70
38325;DHT22;24126;52.672;13.622;2022-07-23T10:44:55;28.20;49.00
38325;DHT22;24126;52.672;13.622;2022-07-23T10:47:29;28.10;49.20
38325;DHT22;24126;52.672;13.622;2022-07-23T10:58:02;28.10;48.50
38325;DHT22;24126;52.672;13.622;2022-07-23T11:00:33;28.10;49.30
38325;DHT22;24126;52.672;13.622;2022-07-23T11:03:02;28.10;49.70
38325;DHT22;24126;52.672;13.622;2022-07-23T11:05:40;28.20;49.00
38325;DHT22;24126;52.672;13.622;2022-07-23T11:10:41;28.10;48.90
38325;DHT22;24126;52.672;13.622;2022-07-23T11:34:24;28.50;48.00
38325;DHT22;24126;52.672;13.622;2022-07-23T11:36:54;28.60;47.40
38325;DHT22;24126;52.672;13.622;2022-07-23T11:39:22;28.80;47.30
38325;DHT22;24126;52.672;13.622;2022-07-23T11:41:51;29.00;47.30
38325;DHT22;24126;52.672;13.622;2022-07-23T11:44:29;29.10;47.00
38325;DHT22;24126;52.672;13.622;2022-07-23T11:46:56;29.20;46.60
38325;DHT22;24126;52.672;13.622;2022-07-23T11:49:24;29.30;46.50
38325;DHT22;24126;52.672;13.622;2022-07-23T11:54:31;29.20;45.80
38325;DHT22;24126;52.672;13.622;2022-07-23T11:56:59;29.30;45.70
38325;DHT22;24126;52.672;13.622;2022-07-23T11:59:27;29.20;45.50
38325;DHT22;24126;52.672;13.622;2022-07-23T12:01:56;29.30;45.00
38325;DHT22;24126;52.672;13.622;2022-07-23T12:04:25;29.40;45.30
38325;DHT22;24126;52.672;13.622;2022-07-23T12:07:03;29.50;45.60
38325;DHT22;24126;52.672;13.622;2022-07-23T12:09:30;29.70;45.20
38325;DHT22;24126;52.672;13.622;2022-07-23T12:11:58;29.70;45.90
38325;DHT22;24126;52.672;13.622;2022-07-23T12:14:26;29.70;45.60
38325;DHT22;24126;52.672;13.622;2022-07-23T12:17:09;29.70;45.80
38325;DHT22;24126;52.672;13.622;2022-07-23T12:19:36;29.70;45.80
38325;DHT22;24126;52.672;13.622;2022-07-23T12:22:03;29.70;45.20
38325;DHT22;24126;52.672;13.622;2022-07-23T12:24:33;29.70;45.30
38325;DHT22;24126;52.672;13.622;2022-07-23T12:27:21;29.80;44.20
38325;DHT22;24126;52.672;13.622;2022-07-23T12:29:49;29.70;44.10
38325;DHT22;24126;52.672;13.622;2022-07-23T12:32:17;29.80;43.60
38325;DHT22;24126;52.672;13.622;2022-07-23T12:34:44;29.80;43.90
38325;DHT22;24126;52.672;13.622;2022-07-23T12:37:25;29.80;44.10
38325;DHT22;24126;52.672;13.622;2022-07-23T12:39:53;29.70;44.10
38325;DHT22;24126;52.672;13.622;2022-07-23T12:42:20;29.70;44.40
38325;DHT22;24126;52.672;13.622;2022-07-23T12:45:07;29.60;44.20
38325;DHT22;24126;52.672;13.622;2022-07-23T12:47:50;29.60;44.40
38325;DHT22;24126;52.672;13.622;2022-07-23T12:53:10;29.60;44.60
38325;DHT22;24126;52.672;13.622;2022-07-23T12:55:39;29.80;44.30
38325;DHT22;24126;52.672;13.622;2022-07-23T12:58:25;29.80;44.30
38325;DHT22;24126;52.672;13.622;2022-07-23T13:00:56;29.80;44.20
38325;DHT22;24126;52.672;13.622;2022-07-23T13:03:33;30.00;44.30
38325;DHT22;24126;52.672;13.622;2022-07-23T13:06:02;30.00;44.60
38325;DHT22;24126;52.672;13.622;2022-07-23T13:08:30;29.80;44.00
38325;DHT22;24126;52.672;13.622;2022-07-23T13:10:57;29.70;44.00
38325;DHT22;24126;52.672;13.622;2022-07-23T13:13:26;29.70;44.00
38325;DHT22;24126;52.672;13.622;2022-07-23T13:15:53;29.60;44.10
38325;DHT22;24126;52.672;13.622;2022-07-23T13:18:20;29.50;43.70
38325;DHT22;24126;52.672;13.622;2022-07-23T13:20:48;29.50;44.00
38325;DHT22;24126;52.672;13.622;2022-07-23T13:23:16;29.40;43.80
38325;DHT22;24126;52.672;13.622;2022-07-23T13:25:43;29.40;44.00
38325;DHT22;24126;52.672;13.622;2022-07-23T13:28:11;29.30;43.70
38325;DHT22;24126;52.672;13.622;2022-07-23T13:30:39;29.40;44.00
38325;DHT22;24126;52.672;13.622;2022-07-23T13:33:07;29.40;44.50
38325;DHT22;24126;52.672;13.622;2022-07-23T13:35:35;29.50;44.40
38325;DHT22;24126;52.672;13.622;2022-07-23T13:38:03;29.60;43.80
38325;DHT22;24126;52.672;13.622;2022-07-23T13:40:30;29.70;43.50
38325;DHT22;24126;52.672;13.622;2022-07-23T13:42:57;29.70;43.50
38325;DHT22;24126;52.672;13.622;2022-07-23T13:45:25;29.70;43.40
38325;DHT22;24126;52.672;13.622;2022-07-23T13:47:52;29.80;44.10
38325;DHT22;24126;52.672;13.622;2022-07-23T13:50:19;29.80;43.40
38325;DHT22;24126;52.672;13.622;2022-07-23T13:52:47;29.80;43.20
38325;DHT22;24126;52.672;13.622;2022-07-23T13:55:14;29.70;42.50
38325;DHT22;24126;52.672;13.622;2022-07-23T13:57:41;29.70;42.40
38325;DHT22;24126;52.672;13.622;2022-07-23T14:00:09;29.60;42.50
38325;DHT22;24126;52.672;13.622;2022-07-23T14:02:38;29.50;42.60
38325;DHT22;24126;52.672;13.622;2022-07-23T14:05:05;29.40;42.70
38325;DHT22;24126;52.672;13.622;2022-07-23T14:07:33;29.40;42.80
38325;DHT22;24126;52.672;13.622;2022-07-23T14:10:00;29.50;42.60
38325;DHT22;24126;52.672;13.622;2022-07-23T14:12:27;29.50;42.80
38325;DHT22;24126;52.672;13.622;2022-07-23T14:14:55;29.60;42.60
38325;DHT22;24126;52.672;13.622;2022-07-23T14:17:22;29.60;42.40
38325;DHT22;24126;52.672;13.622;2022-07-23T14:19:50;29.60;42.10
38325;DHT22;24126;52.672;13.622;2022-07-23T14:22:17;29.70;42.30
38325;DHT22;24126;52.672;13.622;2022-07-23T14:24:44;29.70;41.80
38325;DHT22;24126;52.672;13.622;2022-07-23T14:27:11;29.70;41.70
38325;DHT22;24126;52.672;13.622;2022-07-23T14:29:38;29.80;41.40
38325;DHT22;24126;52.672;13.622;2022-07-23T14:32:06;29.70;41.10
38325;DHT22;24126;52.672;13.622;2022-07-23T14:34:34;29.70;40.90
38325;DHT22;24126;52.672;13.622;2022-07-23T14:37:01;29.70;40.80
38325;DHT22;24126;52.672;13.622;2022-07-23T14:39:28;29.60;41.20
38325;DHT22;24126;52.672;13.622;2022-07-23T14:41:56;29.50;40.70
38325;DHT22;24126;52.672;13.622;2022-07-23T14:44:23;29.40;40.70
38325;DHT22;24126;52.672;13.622;2022-07-23T14:46:50;29.40;41.00
38325;DHT22;24126;52.672;13.622;2022-07-23T14:49:18;29.40;41.10
38325;DHT22;24126;52.672;13.622;2022-07-23T14:51:45;29.40;41.00
38325;DHT22;24126;52.672;13.622;2022-07-23T14:54:12;29.40;40.80
38325;DHT22;24126;52.672;13.622;2022-07-23T14:56:40;29.40;40.60
38325;DHT22;24126;52.672;13.622;2022-07-23T14:59:07;29.40;40.50
38325;DHT22;24126;52.672;13.622;2022-07-23T15:01:35;29.40;40.60
38325;DHT22;24126;52.672;13.622;2022-07-23T15:04:04;29.30;40.70
38325;DHT22;24126;52.672;13.622;2022-07-23T15:06:31;29.30;40.80
38325;DHT22;24126;52.672;13.622;2022-07-23T15:08:59;29.30;40.70
38325;DHT22;24126;52.672;13.622;2022-07-23T15:11:27;29.40;40.50
38325;DHT22;24126;52.672;13.622;2022-07-23T15:13:57;29.40;40.50
38325;DHT22;24126;52.672;13.622;2022-07-23T15:16:25;29.40;39.70
38325;DHT22;24126;52.672;13.622;2022-07-23T15:18:52;29.30;39.90
38325;DHT22;24126;52.672;13.622;2022-07-23T15:21:19;29.40;40.10
38325;DHT22;24126;52.672;13.622;2022-07-23T15:23:46;29.30;39.80
38325;DHT22;24126;52.672;13.622;2022-07-23T15:26:14;29.30;39.70
38325;DHT22;24126;52.672;13.622;2022-07-23T15:28:41;29.20;39.70
38325;DHT22;24126;52.672;13.622;2022-07-23T15:31:08;29.20;39.30
38325;DHT22;24126;52.672;13.622;2022-07-23T15:33:35;29.10;39.50
38325;DHT22;24126;52.672;13.622;2022-07-23T15:36:03;29.00;39.10
38325;DHT22;24126;52.672;13.622;2022-07-23T15:38:30;29.00;39.40
38325;DHT22;24126;52.672;13.622;2022-07-23T15:40:57;28.90;39.40
38325;DHT22;24126;52.672;13.622;2022-07-23T15:43:25;28.80;39.60
38325;DHT22;24126;52.672;13.622;2022-07-23T15:45:52;28.80;39.70
38325;DHT22;24126;52.672;13.622;2022-07-23T15:48:20;28.80;39.50
38325;DHT22;24126;52.672;13.622;2022-07-23T15:50:47;28.80;39.70
38325;DHT22;24126;52.672;13.622;2022-07-23T15:53:14;28.80;39.50
38325;DHT22;24126;52.672;13.622;2022-07-23T15:55:42;28.80;39.30
38325;DHT22;24126;52.672;13.622;2022-07-23T15:58:10;28.80;39.40
38325;DHT22;24126;52.672;13.622;2022-07-23T16:00:38;28.80;39.20
38325;DHT22;24126;52.672;13.622;2022-07-23T16:03:05;28.90;39.20
38325;DHT22;24126;52.672;13.622;2022-07-23T16:05:32;28.90;39.00
38325;DHT22;24126;52.672;13.622;2022-07-23T16:08:01;28.90;39.00
38325;DHT22;24126;52.672;13.622;2022-07-23T16:10:28;28.90;38.50
38325;DHT22;24126;52.672;13.622;2022-07-23T16:12:56;28.90;38.40
38325;DHT22;24126;52.672;13.622;2022-07-23T16:15:23;28.90;38.60